Time;durP1;ratioP1;P1;durP2;ratioP2;P2;SDS_P1;SDS_P2;PMS_P1;PMS_P2;Temp;Humidity;BMP_temperature;BMP_pressure;BME280_temperature;BME280_humidity;BME280_pressure;Samples;Min_cycle;Max_cycle;Signal;HPM_P1;HPM_P2
2023/01/20 00:01:13;;;;;;;4.53;3.90;;;15.20;59.10;16.00;100221.00;;;;5030619;28;20202;-47
2023/01/20 00:03:39;;;;;;;4.83;3.40;;;15.30;59.20;16.00;100228.00;;;;5038993;28;20166;-45
2023/01/20 00:06:05;;;;;;;5.00;3.70;;;15.20;59.10;16.00;100213.00;;;;5038852;28;20167;-45
2023/01/20 00:08:31;;;;;;;4.73;3.70;;;15.10;59.10;16.00;100162.00;;;;5032044;28;20263;-46
2023/01/20 00:10:57;;;;;;;4.37;3.50;;;15.10;59.10;16.00;100224.00;;;;5031082;28;20257;-47
2023/01/20 00:13:23;;;;;;;4.40;3.47;;;15.10;59.20;16.00;100227.00;;;;5030961;28;20222;-46
2023/01/20 00:15:48;;;;;;;6.10;3.47;;;15.10;59.20;16.00;100235.00;;;;5031153;28;20198;-46
2023/01/20 00:18:14;;;;;;;6.17;3.70;;;15.10;59.20;16.00;100224.00;;;;5030793;28;20230;-46
2023/01/20 00:20:40;;;;;;;4.70;3.60;;;15.00;59.20;16.00;100226.00;;;;5031041;28;20672;-45
2023/01/20 00:23:06;;;;;;;4.60;3.60;;;15.10;59.20;15.90;100219.00;;;;5030598;28;20186;-45
2023/01/20 00:25:34;;;;;;;3.80;3.40;;;15.10;59.20;15.90;100233.00;;;;5030942;28;20599;-46
2023/01/20 00:28:00;;;;;;;4.00;3.43;;;15.10;59.30;15.90;100239.00;;;;5029015;28;20226;-45
2023/01/20 00:30:25;;;;;;;4.93;3.50;;;15.00;59.10;15.90;100242.00;;;;5030568;28;20710;-45
2023/01/20 00:32:51;;;;;;;3.90;3.23;;;15.00;59.20;15.90;100198.00;;;;5029026;28;20186;-45
2023/01/20 00:35:17;;;;;;;3.83;3.47;;;15.00;59.10;15.60;100239.00;;;;5029108;28;20174;-45
2023/01/20 00:37:43;;;;;;;5.03;3.40;;;14.90;59.00;15.90;100248.00;;;;5030221;28;20194;-45
2023/01/20 00:40:09;;;;;;;3.93;3.57;;;15.00;59.20;15.80;100240.00;;;;5030769;28;20187;-45
2023/01/20 00:42:35;;;;;;;3.37;3.07;;;15.00;59.40;15.80;100250.00;;;;5030275;28;20544;-47
2023/01/20 00:45:01;;;;;;;3.47;3.13;;;14.90;59.10;15.80;100251.00;;;;5030280;28;20171;-46
2023/01/20 00:47:26;;;;;;;3.60;3.30;;;14.90;59.20;15.60;100253.00;;;;5030279;28;20198;-46
2023/01/20 00:49:52;;;;;;;3.67;3.33;;;14.90;59.20;15.80;100252.00;;;;5029753;28;20294;-46
2023/01/20 00:52:18;;;;;;;3.90;3.50;;;14.80;59.20;15.80;100258.00;;;;5031730;28;20829;-46
2023/01/20 00:54:44;;;;;;;4.47;3.50;;;14.90;59.90;15.80;100261.00;;;;5029961;28;20240;-45
2023/01/20 00:57:10;;;;;;;3.97;3.30;;;14.80;59.20;15.70;100258.00;;;;5030177;28;20179;-47
2023/01/20 00:59:36;;;;;;;3.40;3.10;;;14.80;59.20;15.70;100255.00;;;;5029513;28;20223;-47
2023/01/20 01:02:02;;;;;;;5.37;3.30;;;14.80;59.20;15.70;100256.00;;;;5029552;28;20182;-47
2023/01/20 01:04:28;;;;;;;3.23;2.93;;;14.80;59.20;15.70;100257.00;;;;5029906;28;20182;-47
2023/01/20 01:06:53;;;;;;;3.97;3.10;;;14.80;59.20;15.70;100258.00;;;;5030306;28;20202;-45
2023/01/20 01:09:20;;;;;;;3.50;3.20;;;14.80;59.20;15.70;100261.00;;;;5030158;28;20202;-46
2023/01/20 01:11:49;;;;;;;4.67;3.53;;;14.80;59.30;15.70;100265.00;;;;5030123;28;20249;-45
2023/01/20 01:14:15;;;;;;;3.67;3.17;;;14.70;59.20;15.60;100267.00;;;;5032757;28;20189;-47
2023/01/20 01:16:41;;;;;;;3.50;3.20;;;14.70;59.10;15.60;100265.00;;;;5031206;28;20694;-46
2023/01/20 01:19:07;;;;;;;3.40;3.10;;;14.80;59.20;15.60;100273.00;;;;5028731;28;20257;-46
2023/01/20 01:21:33;;;;;;;3.50;3.20;;;14.70;59.10;15.60;100275.00;;;;5029218;28;20254;-45
2023/01/20 01:23:59;;;;;;;3.10;2.90;;;14.70;59.20;15.60;100280.00;;;;5029477;28;20546;-46
2023/01/20 01:26:24;;;;;;;3.30;2.90;;;14.70;59.20;15.60;100289.00;;;;5029569;28;20171;-46
2023/01/20 01:28:50;;;;;;;3.13;2.93;;;14.70;59.20;15.50;100281.00;;;;5029249;28;20195;-46
2023/01/20 01:31:17;;;;;;;3.63;3.20;;;14.70;59.30;15.60;100296.00;;;;5029224;28;20226;-46
2023/01/20 01:33:43;;;;;;;3.93;3.57;;;14.70;59.20;15.50;100302.00;;;;5029136;28;20178;-51
2023/01/20 01:36:12;;;;;;;3.97;3.40;;;14.60;59.10;15.50;100295.00;;;;5029347;28;20173;-46
2023/01/20 01:38:38;;;;;;;3.83;3.10;;;14.70;59.30;15.50;100292.00;;;;5029642;28;20187;-46
2023/01/20 01:41:04;;;;;;;3.37;3.07;;;14.60;59.20;15.50;100301.00;;;;5029408;28;20548;-46
2023/01/20 01:43:32;;;;;;;3.20;2.90;;;14.70;59.20;15.50;100308.00;;;;5028699;28;20222;-46
2023/01/20 01:45:58;;;;;;;3.20;2.90;;;14.60;59.20;15.50;100303.00;;;;5029170;28;20281;-46
2023/01/20 01:48:36;;;;;;;3.70;3.20;;;14.60;59.30;15.50;100305.00;;;;5028925;28;20206;-46
2023/01/20 01:51:11;;;;;;;3.63;3.30;;;14.60;59.30;15.40;100303.00;;;;5011800;28;20210;-47
2023/01/20 01:53:44;;;;;;;3.80;3.40;;;14.60;59.40;15.40;100307.00;;;;5029172;28;20166;-45
2023/01/20 01:56:10;;;;;;;3.23;2.93;;;14.60;59.40;15.40;100312.00;;;;5028136;28;20548;-46
2023/01/20 01:58:38;;;;;;;3.43;3.10;;;14.50;59.40;15.40;100309.00;;;;5029096;28;20182;-46
2023/01/20 02:01:04;;;;;;;3.10;2.80;;;14.50;59.40;15.40;100315.00;;;;4995782;28;20170;-46
2023/01/20 02:03:55;;;;;;;3.83;2.97;;;14.50;59.40;15.40;100317.00;;;;5027802;28;20175;-46
2023/01/20 02:06:21;;;;;;;3.37;3.00;;;14.50;59.40;15.40;100314.00;;;;5023021;28;20162;-46
2023/01/20 02:08:47;;;;;;;4.10;3.13;;;14.50;59.30;15.30;100309.00;;;;5006832;28;20249;-45
2023/01/20 02:11:13;;;;;;;3.30;3.00;;;14.50;59.40;15.30;100314.00;;;;5043588;28;20222;-47
2023/01/20 02:13:39;;;;;;;3.10;2.80;;;14.50;59.40;15.30;100314.00;;;;5043608;28;20178;-45
2023/01/20 02:16:33;;;;;;;3.10;2.80;;;14.40;59.30;15.30;100313.00;;;;5034212;28;20255;-45
2023/01/20 02:19:46;;;;;;;3.10;2.90;;;14.50;59.40;15.30;100311.00;;;;5017822;28;20194;-45
2023/01/20 02:22:27;;;;;;;3.40;2.90;;;14.40;59.40;15.30;100318.00;;;;5030006;28;20191;-51
2023/01/20 02:25:48;;;;;;;3.10;2.80;;;14.40;59.40;15.20;100324.00;;;;5031579;28;20163;-45
2023/01/20 02:28:43;;;;;;;3.10;2.80;;;14.40;59.50;15.20;100333.00;;;;5033080;28;20668;-45
2023/01/20 02:31:28;;;;;;;3.47;3.17;;;14.40;59.60;15.20;100331.00;;;;5017406;28;20205;-46
2023/01/20 02:34:23;;;;;;;3.27;2.97;;;14.40;59.50;15.20;100334.00;;;;5031738;28;20155;-46
2023/01/20 02:37:30;;;;;;;3.10;2.80;;;14.30;59.40;15.20;100335.00;;;;5031270;28;20191;-45
2023/01/20 02:40:10;;;;;;;3.03;2.77;;;14.30;59.50;15.10;100342.00;;;;5009789;28;20248;-45
2023/01/20 02:43:02;;;;;;;3.40;3.07;;;14.30;59.50;15.10;100335.00;;;;5030745;28;20162;-46
2023/01/20 02:45:44;;;;;;;3.67;3.37;;;14.30;59.60;15.10;100343.00;;;;5015621;28;20163;-49
2023/01/20 02:48:27;;;;;;;3.03;2.73;;;14.30;59.60;15.10;100350.00;;;;5001026;28;20209;-45
2023/01/20 02:51:19;;;;;;;3.50;3.20;;;14.20;59.60;15.10;100351.00;;;;5015806;28;20286;-45
2023/01/20 02:54:00;;;;;;;2.90;2.70;;;14.30;59.60;15.10;100348.00;;;;5031657;28;20179;-47
2023/01/20 02:56:27;;;;;;;3.70;3.27;;;14.20;59.40;15.10;100323.00;;;;5031708;28;20167;-45
2023/01/20 02:59:01;;;;;;;3.10;2.83;;;14.20;59.40;15.10;100345.00;;;;5031258;28;20564;-46
2023/01/20 03:01:49;;;;;;;2.80;2.60;;;14.20;59.40;15.10;100346.00;;;;5014362;28;20175;-45
2023/01/20 03:04:19;;;;;;;3.03;2.80;;;14.20;59.50;15.00;100348.00;;;;5031341;28;20191;-45
2023/01/20 03:06:49;;;;;;;3.50;3.20;;;14.20;59.50;15.10;100356.00;;;;4998791;28;20525;-45
2023/01/20 03:09:17;;;;;;;3.37;3.07;;;14.20;59.50;15.10;100357.00;;;;5014569;28;20766;-47
2023/01/20 03:11:49;;;;;;;3.67;3.00;;;14.20;59.50;15.00;100352.00;;;;5014088;28;20175;-45
2023/01/20 03:14:15;;;;;;;3.40;3.10;;;14.20;59.50;15.00;100352.00;;;;5014848;28;20175;-45
2023/01/20 03:16:41;;;;;;;3.20;2.90;;;14.20;59.50;15.00;100359.00;;;;5030802;28;20632;-45
2023/01/20 03:19:06;;;;;;;3.23;2.93;;;14.20;59.50;15.00;100352.00;;;;5032028;28;20226;-45
2023/01/20 03:21:33;;;;;;;3.30;3.00;;;14.20;59.50;15.00;100366.00;;;;5013233;28;20187;-46
2023/01/20 03:24:03;;;;;;;3.20;3.00;;;14.20;59.50;15.00;100362.00;;;;5030594;28;20170;-52
2023/01/20 03:26:29;;;;;;;3.10;2.80;;;14.20;59.50;15.00;100370.00;;;;5030524;28;20182;-46
2023/01/20 03:28:55;;;;;;;3.33;3.03;;;14.10;59.50;15.00;100374.00;;;;5031798;28;20650;-46
2023/01/20 03:31:35;;;;;;;2.93;2.73;;;14.10;60.80;15.00;100376.00;;;;5030639;28;20206;-46
2023/01/20 03:34:02;;;;;;;3.00;2.80;;;14.10;61.00;15.00;100380.00;;;;5030855;28;20250;-46
2023/01/20 03:36:28;;;;;;;3.00;2.80;;;14.10;60.80;15.00;100363.00;;;;5029943;28;20647;-45
2023/01/20 03:38:54;;;;;;;3.00;2.77;;;14.00;60.70;15.00;100369.00;;;;5030458;28;20217;-46
2023/01/20 03:41:50;;;;;;;3.13;2.70;;;14.00;60.70;14.90;100375.00;;;;5029483;28;20795;-45
2023/01/20 03:44:50;;;;;;;3.07;2.80;;;14.00;60.80;14.90;100372.00;;;;5031480;28;20194;-46
2023/01/20 03:47:57;;;;;;;3.20;2.90;;;14.00;60.30;14.90;100380.00;;;;5029901;28;20192;-47
2023/01/20 03:50:34;;;;;;;2.80;2.60;;;14.00;60.30;14.90;100370.00;;;;5030158;28;20250;-45
2023/01/20 03:53:09;;;;;;;3.00;2.77;;;14.00;60.40;14.90;100361.00;;;;5029419;28;20159;-46
2023/01/20 03:55:41;;;;;;;3.07;2.87;;;13.90;60.10;14.80;100372.00;;;;5033555;28;20624;-46
2023/01/20 03:58:13;;;;;;;3.30;3.00;;;14.00;60.20;14.80;100367.00;;;;5032461;28;20187;-46
2023/01/20 04:00:44;;;;;;;2.83;2.60;;;13.90;60.10;14.80;100377.00;;;;5030370;28;20186;-45
2023/01/20 04:03:15;;;;;;;2.93;2.70;;;13.90;60.10;14.80;100384.00;;;;5029962;28;20178;-46
2023/01/20 04:05:41;;;;;;;2.97;2.67;;;13.90;59.90;14.80;100379.00;;;;5030707;28;20544;-45
2023/01/20 04:08:08;;;;;;;2.90;2.70;;;13.90;60.00;14.80;100381.00;;;;5029959;28;20239;-47
2023/01/20 04:10:35;;;;;;;2.87;2.67;;;13.80;60.00;14.80;100382.00;;;;4997481;28;20971;-46
2023/01/20 04:13:01;;;;;;;2.83;2.63;;;13.90;59.90;14.80;100382.00;;;;5029078;28;20170;-45
2023/01/20 04:15:27;;;;;;;2.80;2.60;;;13.90;60.00;14.80;100369.00;;;;5029868;28;20196;-45
2023/01/20 04:17:52;;;;;;;2.90;2.70;;;13.90;60.10;14.80;100377.00;;;;5038473;28;20191;-45
2023/01/20 04:20:18;;;;;;;3.00;2.70;;;13.80;60.10;14.80;100382.00;;;;5038482;28;20202;-47
2023/01/20 04:22:50;;;;;;;2.87;2.67;;;13.80;60.10;14.80;100392.00;;;;5030079;28;20571;-47
2023/01/20 04:25:25;;;;;;;2.90;2.70;;;13.90;60.20;14.70;100382.00;;;;5029510;28;20190;-46
2023/01/20 04:27:51;;;;;;;3.30;2.73;;;13.80;60.10;14.70;100388.00;;;;5029362;28;20198;-46
2023/01/20 04:30:17;;;;;;;6.27;2.97;;;13.80;60.70;14.70;100384.00;;;;5030583;28;20203;-46
2023/01/20 04:32:42;;;;;;;4.60;2.90;;;13.80;60.90;14.70;100388.00;;;;5030397;28;20237;-45
2023/01/20 04:35:17;;;;;;;2.97;2.70;;;13.80;60.50;14.70;100394.00;;;;5032104;28;20199;-45
2023/01/20 04:37:43;;;;;;;5.30;2.73;;;13.80;60.20;14.70;100397.00;;;;5032774;28;20202;-45
2023/01/20 04:40:09;;;;;;;4.87;2.90;;;13.90;60.50;14.70;100398.00;;;;5030689;28;20175;-46
2023/01/20 04:42:35;;;;;;;3.30;2.70;;;13.80;60.30;14.70;100398.00;;;;5028918;28;20202;-46
2023/01/20 04:45:01;;;;;;;4.80;3.27;;;13.80;60.20;14.70;100408.00;;;;5030389;28;20697;-46
2023/01/20 04:47:31;;;;;;;4.47;3.50;;;13.80;60.10;14.70;100408.00;;;;5030363;28;20203;-45
2023/01/20 04:49:56;;;;;;;3.53;3.23;;;13.80;60.10;14.70;100418.00;;;;5030768;28;20201;-45
2023/01/20 04:52:22;;;;;;;4.60;3.60;;;13.80;60.10;14.70;100428.00;;;;5030338;28;20167;-46
2023/01/20 04:54:48;;;;;;;3.53;3.20;;;13.80;60.00;14.60;100419.00;;;;5030743;28;20290;-45
2023/01/20 04:57:13;;;;;;;4.00;3.60;;;13.80;59.90;14.60;100426.00;;;;5030656;28;20178;-46
2023/01/20 04:59:40;;;;;;;3.97;3.60;;;13.70;59.80;14.60;100426.00;;;;5019562;28;20284;-46
2023/01/20 05:02:06;;;;;;;4.20;3.80;;;13.80;59.80;14.60;100421.00;;;;4995143;28;20183;-46
2023/01/20 05:04:32;;;;;;;4.03;3.63;;;13.70;59.60;14.60;100423.00;;;;5010534;28;20526;-46
2023/01/20 05:06:58;;;;;;;4.07;3.67;;;13.70;59.60;14.60;100414.00;;;;5010796;28;20175;-46
2023/01/20 05:09:23;;;;;;;5.40;4.13;;;13.70;59.50;14.60;100413.00;;;;5009784;28;20202;-45
2023/01/20 05:11:49;;;;;;;4.37;3.97;;;13.70;59.40;14.60;100421.00;;;;5009174;28;20178;-45
2023/01/20 05:14:15;;;;;;;4.50;4.10;;;13.70;59.40;14.60;100418.00;;;;5010024;28;20206;-53
2023/01/20 05:16:41;;;;;;;5.30;4.20;;;13.70;59.40;14.50;100420.00;;;;5010299;28;20641;-46
2023/01/20 05:19:09;;;;;;;4.83;4.20;;;13.60;59.40;14.50;100420.00;;;;5010239;28;20200;-45
2023/01/20 05:21:35;;;;;;;6.10;4.50;;;13.70;59.50;14.60;100422.00;;;;5009194;28;20242;-45
2023/01/20 05:24:00;;;;;;;8.13;4.60;;;13.70;59.60;14.60;100422.00;;;;5009936;28;20184;-45
2023/01/20 05:26:26;;;;;;;7.03;4.37;;;13.70;59.70;14.60;100429.00;;;;5009691;28;20201;-45
2023/01/20 05:28:52;;;;;;;6.97;4.40;;;13.70;59.60;14.60;100426.00;;;;5008355;28;20285;-46
2023/01/20 05:31:18;;;;;;;4.67;4.13;;;13.80;59.60;14.60;100425.00;;;;5007907;28;20226;-46
2023/01/20 05:33:44;;;;;;;5.40;4.43;;;13.80;59.40;14.70;100429.00;;;;5009912;28;20254;-46
2023/01/20 05:36:10;;;;;;;6.27;4.40;;;13.80;59.40;14.70;100437.00;;;;5009603;28;20163;-46
2023/01/20 05:38:36;;;;;;;6.40;4.40;;;13.90;59.40;14.70;100441.00;;;;5010027;28;20197;-45
2023/01/20 05:41:03;;;;;;;5.57;4.57;;;13.80;59.40;14.70;100447.00;;;;5009399;28;20247;-47
2023/01/20 05:43:29;;;;;;;6.20;4.37;;;13.90;59.40;14.80;100451.00;;;;5009396;28;20234;-46
2023/01/20 05:45:55;;;;;;;8.10;4.60;;;13.90;59.40;14.80;100442.00;;;;5010054;28;20179;-47
2023/01/20 05:48:21;;;;;;;5.67;4.97;;;13.90;59.30;14.80;100454.00;;;;5009640;28;20199;-45
2023/01/20 05:50:46;;;;;;;5.90;5.33;;;13.90;59.20;14.80;100461.00;;;;5008198;28;20290;-46
2023/01/20 05:53:13;;;;;;;8.20;5.67;;;13.90;58.70;14.80;100458.00;;;;5011008;28;20210;-47
2023/01/20 05:55:44;;;;;;;7.00;5.60;;;13.90;58.40;14.80;100457.00;;;;5016252;28;20184;-46
2023/01/20 05:58:10;;;;;;;6.07;5.50;;;13.90;58.50;14.70;100449.00;;;;4998877;28;20199;-48
2023/01/20 06:00:36;;;;;;;6.73;5.77;;;13.90;58.40;14.70;100458.00;;;;4961452;28;20183;-46
2023/01/20 06:03:02;;;;;;;6.83;6.03;;;13.80;58.20;14.70;100466.00;;;;4992887;28;20175;-46
2023/01/20 06:05:28;;;;;;;6.83;6.00;;;13.80;57.80;14.70;100460.00;;;;5009976;28;20649;-47
2023/01/20 06:07:54;;;;;;;11.73;6.23;;;13.80;57.70;14.70;100468.00;;;;5009325;28;20195;-49
2023/01/20 06:10:20;;;;;;;9.30;5.80;;;13.80;58.00;14.70;100470.00;;;;5009470;28;20200;-47
2023/01/20 06:12:51;;;;;;;6.17;5.57;;;13.80;58.00;14.70;100467.00;;;;5007459;28;20178;-46
2023/01/20 06:15:17;;;;;;;6.03;5.40;;;13.90;58.00;14.70;100454.00;;;;5010399;28;20163;-46
2023/01/20 06:17:43;;;;;;;6.17;5.53;;;13.80;57.90;14.70;100476.00;;;;4991939;28;20199;-46
2023/01/20 06:20:10;;;;;;;7.67;5.53;;;13.90;57.90;14.70;100481.00;;;;5009609;28;20194;-47
2023/01/20 06:22:35;;;;;;;6.33;5.73;;;13.80;57.80;14.70;100484.00;;;;5019863;28;20665;-47
2023/01/20 06:25:01;;;;;;;6.13;5.33;;;13.80;57.80;14.70;100485.00;;;;5021576;28;20179;-46
2023/01/20 06:27:27;;;;;;;5.87;5.30;;;13.80;57.80;14.70;100461.00;;;;5021165;28;20175;-46
2023/01/20 06:29:53;;;;;;;6.00;5.33;;;13.80;58.00;14.70;100478.00;;;;5009550;28;20200;-46
2023/01/20 06:32:18;;;;;;;7.07;5.33;;;13.80;57.90;14.60;100488.00;;;;5009091;28;20168;-46
2023/01/20 06:34:44;;;;;;;5.80;5.10;;;13.70;57.70;14.60;100485.00;;;;5009292;28;20167;-46
2023/01/20 06:37:10;;;;;;;5.43;4.93;;;13.80;58.00;14.60;100494.00;;;;5010599;28;20695;-46
2023/01/20 06:39:36;;;;;;;5.97;5.37;;;13.70;57.80;14.60;100491.00;;;;5010421;28;20259;-46
2023/01/20 06:42:02;;;;;;;6.43;5.67;;;13.70;57.70;14.60;100494.00;;;;5008893;28;20184;-46
2023/01/20 06:44:28;;;;;;;5.70;5.10;;;13.70;57.70;14.60;100482.00;;;;5024626;28;20180;-46
2023/01/20 06:46:56;;;;;;;5.63;5.13;;;13.70;57.70;14.60;100493.00;;;;5009565;28;20198;-46
2023/01/20 06:49:21;;;;;;;5.60;5.10;;;13.70;57.70;14.60;100498.00;;;;5008635;28;20204;-48
2023/01/20 06:51:48;;;;;;;5.63;4.90;;;13.70;57.70;14.50;100495.00;;;;5007659;28;20221;-47
2023/01/20 06:54:14;;;;;;;5.83;5.13;;;13.70;57.90;14.50;100501.00;;;;5009415;28;20229;-46
2023/01/20 06:56:39;;;;;;;5.77;5.27;;;13.60;57.80;14.50;100500.00;;;;5008119;28;20537;-46
2023/01/20 06:59:05;;;;;;;5.10;4.60;;;13.60;57.80;14.50;100503.00;;;;5011179;28;20187;-46
2023/01/20 07:01:31;;;;;;;5.30;4.80;;;13.60;57.80;14.50;100509.00;;;;5012151;28;20183;-46
2023/01/20 07:03:57;;;;;;;5.13;4.63;;;13.60;57.80;14.50;100502.00;;;;5012731;28;20187;-46
2023/01/20 07:06:37;;;;;;;6.30;4.97;;;13.60;57.80;14.50;100506.00;;;;5012825;28;20182;-45
2023/01/20 07:09:04;;;;;;;5.47;4.97;;;13.60;57.80;14.50;100507.00;;;;5012407;28;20192;-45
2023/01/20 07:11:30;;;;;;;5.70;5.17;;;13.60;57.80;14.50;100519.00;;;;5010882;28;20215;-51
2023/01/20 07:13:56;;;;;;;5.30;4.80;;;13.50;57.70;14.50;100523.00;;;;5012540;28;20551;-47
2023/01/20 07:16:22;;;;;;;5.43;4.93;;;13.50;57.50;14.50;100529.00;;;;5011389;28;20171;-46
2023/01/20 07:18:49;;;;;;;5.40;4.90;;;13.50;57.50;14.40;100534.00;;;;5010938;28;20192;-47
2023/01/20 07:21:14;;;;;;;4.97;4.57;;;13.50;57.60;14.40;100537.00;;;;5010400;28;20237;-45
2023/01/20 07:23:40;;;;;;;5.20;4.70;;;13.50;57.80;14.40;100540.00;;;;5012399;28;20652;-46
2023/01/20 07:26:11;;;;;;;4.90;4.50;;;13.50;57.50;14.40;100548.00;;;;5012930;28;20194;-46
2023/01/20 07:28:37;;;;;;;5.27;4.77;;;13.50;57.70;14.40;100540.00;;;;5012829;28;20342;-46
2023/01/20 07:31:07;;;;;;;5.27;4.77;;;13.50;57.60;14.40;100541.00;;;;5013074;28;20299;-47
2023/01/20 07:33:33;;;;;;;5.10;4.70;;;13.50;57.50;14.40;100543.00;;;;5009910;28;20211;-47
2023/01/20 07:35:59;;;;;;;5.37;4.87;;;13.50;57.50;14.40;100545.00;;;;5010917;28;20247;-46
2023/01/20 07:38:24;;;;;;;4.90;4.47;;;13.50;57.50;14.40;100548.00;;;;5011868;28;20207;-47
2023/01/20 07:40:50;;;;;;;4.73;4.20;;;13.50;57.40;14.40;100555.00;;;;5011815;28;20254;-48
2023/01/20 07:43:16;;;;;;;4.90;4.40;;;13.60;57.50;14.40;100558.00;;;;5011278;28;20179;-46
2023/01/20 07:45:42;;;;;;;5.17;4.40;;;13.60;57.30;14.40;100558.00;;;;5012846;28;20203;-45
2023/01/20 07:48:08;;;;;;;4.97;4.47;;;13.60;57.30;14.50;100547.00;;;;5010830;28;20774;-45
2023/01/20 07:50:34;;;;;;;5.03;4.53;;;13.60;57.20;14.50;100569.00;;;;4995918;28;20218;-45
2023/01/20 07:53:00;;;;;;;4.20;3.80;;;13.70;57.30;14.50;100551.00;;;;5013643;28;20278;-45
2023/01/20 07:55:26;;;;;;;4.67;4.20;;;13.70;57.30;14.50;100568.00;;;;4996679;28;20594;-46
2023/01/20 07:57:51;;;;;;;4.67;4.10;;;13.70;57.30;14.60;100568.00;;;;5011220;28;20226;-47
2023/01/20 08:00:18;;;;;;;4.60;4.10;;;13.80;57.30;14.60;100582.00;;;;5011096;28;20262;-46
2023/01/20 08:02:44;;;;;;;4.20;3.80;;;13.80;57.40;14.60;100580.00;;;;5009909;28;20185;-46
2023/01/20 08:05:10;;;;;;;4.27;3.87;;;13.80;57.30;14.60;100579.00;;;;5010462;28;20648;-46
2023/01/20 08:07:35;;;;;;;4.70;4.20;;;13.80;57.30;14.60;100579.00;;;;4993667;28;20194;-47
2023/01/20 08:10:01;;;;;;;5.13;3.73;;;13.80;57.30;14.70;100589.00;;;;5009253;28;20223;-47
2023/01/20 08:12:28;;;;;;;5.03;4.10;;;13.90;57.40;14.70;100590.00;;;;5010920;28;20164;-46
2023/01/20 08:14:54;;;;;;;4.47;3.97;;;13.90;57.40;14.70;100601.00;;;;5011334;28;20167;-45
2023/01/20 08:17:19;;;;;;;4.30;3.90;;;13.90;57.30;14.70;100595.00;;;;5010433;28;20229;-51
2023/01/20 08:19:45;;;;;;;4.27;3.87;;;13.90;57.30;14.70;100590.00;;;;5022267;28;20280;-47
2023/01/20 08:22:11;;;;;;;4.37;3.80;;;13.90;57.20;14.70;100596.00;;;;5030058;28;20769;-45
2023/01/20 08:24:36;;;;;;;4.30;3.90;;;13.90;57.20;14.70;100595.00;;;;5029693;28;20175;-45
2023/01/20 08:27:02;;;;;;;4.40;4.00;;;13.90;57.20;14.80;100605.00;;;;5030344;28;20185;-46
2023/01/20 08:29:30;;;;;;;5.47;4.50;;;13.90;57.20;14.80;100601.00;;;;5041076;28;20197;-46
2023/01/20 08:31:59;;;;;;;5.83;3.90;;;13.90;57.30;14.80;100614.00;;;;5038783;28;20262;-45
2023/01/20 08:34:25;;;;;;;4.57;4.10;;;13.90;57.30;14.80;100614.00;;;;5030225;28;20167;-45
2023/01/20 08:36:53;;;;;;;4.70;4.10;;;13.90;57.40;14.80;100623.00;;;;5031090;28;20233;-45
2023/01/20 08:39:19;;;;;;;4.30;3.90;;;14.00;57.50;14.80;100619.00;;;;5030831;28;20202;-45
2023/01/20 08:41:45;;;;;;;4.70;4.10;;;13.90;57.50;14.80;100624.00;;;;5030407;28;20202;-45
2023/01/20 08:44:10;;;;;;;4.40;4.00;;;13.90;57.80;14.80;100628.00;;;;5028044;28;20240;-46
2023/01/20 08:46:38;;;;;;;4.70;3.80;;;13.90;58.00;14.80;100627.00;;;;5030244;28;20171;-46
2023/01/20 08:49:16;;;;;;;3.83;3.43;;;14.00;58.10;14.80;100633.00;;;;5030828;28;20286;-46
2023/01/20 08:51:42;;;;;;;3.77;3.47;;;14.00;58.20;14.80;100630.00;;;;5030025;28;20171;-45
2023/01/20 08:54:08;;;;;;;3.67;3.13;;;14.00;58.20;14.90;100632.00;;;;5030985;28;20187;-45
2023/01/20 08:56:35;;;;;;;3.53;3.20;;;14.00;58.20;14.90;100631.00;;;;5030372;28;20229;-46
2023/01/20 08:59:01;;;;;;;3.83;3.40;;;14.10;58.20;14.90;100623.00;;;;5029496;28;20218;-46
2023/01/20 09:01:29;;;;;;;3.50;3.17;;;14.20;58.90;15.00;100634.00;;;;5027634;28;20233;-46
2023/01/20 09:03:55;;;;;;;3.33;2.90;;;14.20;58.30;15.10;100631.00;;;;5030418;28;20171;-45
2023/01/20 09:06:21;;;;;;;2.87;2.60;;;14.30;58.40;15.10;100628.00;;;;5028768;28;20541;-47
2023/01/20 09:08:50;;;;;;;3.30;2.80;;;14.40;58.50;15.20;100627.00;;;;5028999;28;20190;-46
2023/01/20 09:11:18;;;;;;;3.47;2.90;;;14.50;58.70;15.30;100626.00;;;;5029609;28;20553;-47
2023/01/20 09:13:44;;;;;;;4.07;2.77;;;14.60;58.80;15.40;100630.00;;;;5029141;28;20765;-46
2023/01/20 09:16:14;;;;;;;2.90;2.60;;;14.70;58.80;15.50;100632.00;;;;5030031;28;20177;-46
2023/01/20 09:18:40;;;;;;;4.40;3.00;;;14.80;58.90;15.50;100632.00;;;;5031570;28;20191;-46
2023/01/20 09:21:07;;;;;;;6.73;2.83;;;14.80;59.00;15.70;100637.00;;;;5033410;28;20183;-47
2023/01/20 09:23:34;;;;;;;5.87;2.77;;;14.90;59.20;15.70;100625.00;;;;5030380;28;20644;-46
2023/01/20 09:26:00;;;;;;;3.90;2.70;;;15.00;59.10;15.80;100624.00;;;;5029127;28;20179;-46
2023/01/20 09:28:27;;;;;;;3.63;2.90;;;15.10;59.10;15.90;100635.00;;;;5028676;28;20867;-46
2023/01/20 09:31:06;;;;;;;5.70;2.60;;;15.20;59.10;16.00;100640.00;;;;5029501;28;20728;-47
2023/01/20 09:33:34;;;;;;;3.47;2.60;;;15.30;59.20;16.10;100639.00;;;;5028330;28;20616;-46
2023/01/20 09:36:01;;;;;;;4.03;2.90;;;15.40;59.10;16.20;100643.00;;;;5029642;28;20326;-46
2023/01/20 09:44:34;;;;;;;3.07;2.77;;;15.60;59.50;16.40;100647.00;;;;5008744;28;20638;-47
2023/01/20 09:47:22;;;;;;;3.93;2.70;;;15.70;59.70;16.50;100660.00;;;;5009778;28;20203;-47
2023/01/20 09:55:49;;;;;;;3.03;2.73;;;15.90;59.70;16.70;100638.00;;;;5009896;28;20182;-45
2023/01/20 09:58:39;;;;;;;2.97;2.57;;;15.90;59.60;16.80;100641.00;;;;5008610;28;20227;-47
2023/01/20 10:01:20;;;;;;;3.70;2.50;;;16.00;59.80;16.80;100647.00;;;;5027745;28;20183;-46
2023/01/20 10:04:06;;;;;;;2.97;2.50;;;16.10;59.60;16.90;100641.00;;;;5028984;28;20813;-47
2023/01/20 10:06:53;;;;;;;5.33;2.60;;;16.10;59.50;16.90;100637.00;;;;5029276;28;20179;-45
2023/01/20 10:09:32;;;;;;;2.77;2.57;;;16.10;59.40;16.90;100643.00;;;;5026942;28;20209;-46
2023/01/20 10:12:24;;;;;;;2.90;2.63;;;16.10;59.40;17.00;100644.00;;;;5029077;28;20210;-46
2023/01/20 10:15:06;;;;;;;4.10;2.53;;;16.20;59.40;17.00;100642.00;;;;5028216;28;20194;-46
2023/01/20 10:17:41;;;;;;;4.27;2.80;;;16.20;59.50;17.00;100639.00;;;;5013359;28;20183;-46
2023/01/20 10:20:14;;;;;;;3.80;2.67;;;16.30;60.10;17.00;100636.00;;;;5027030;28;20190;-46
2023/01/20 10:22:47;;;;;;;3.93;2.30;;;16.20;60.00;17.10;100644.00;;;;5012681;28;20187;-46
2023/01/20 10:25:30;;;;;;;2.97;2.30;;;16.30;60.70;17.10;100646.00;;;;5009249;28;20232;-46
2023/01/20 10:28:14;;;;;;;3.60;2.60;;;16.30;60.70;17.10;100644.00;;;;5022475;28;20216;-46
2023/01/20 10:30:40;;;;;;;4.13;2.67;;;16.30;60.70;17.10;100645.00;;;;5023111;28;20202;-47
2023/01/20 10:33:10;;;;;;;3.80;2.50;;;16.40;60.70;17.10;100649.00;;;;5016307;28;20168;-46
2023/01/20 10:35:43;;;;;;;2.70;2.50;;;16.30;60.60;17.20;100645.00;;;;5019904;28;20187;-45
2023/01/20 10:38:30;;;;;;;3.83;2.57;;;16.40;60.70;17.20;100645.00;;;;5021913;28;20278;-46
2023/01/20 10:41:17;;;;;;;3.60;2.37;;;16.40;60.60;17.20;100642.00;;;;5008507;28;20163;-47
2023/01/20 10:43:43;;;;;;;4.60;2.63;;;16.50;60.70;17.20;100634.00;;;;5021905;28;20271;-46
2023/01/20 10:46:31;;;;;;;3.30;2.27;;;16.50;60.60;17.20;100638.00;;;;5013416;28;20665;-48
2023/01/20 10:49:19;;;;;;;3.60;2.50;;;16.50;60.50;17.30;100633.00;;;;5026113;28;20223;-46
2023/01/20 10:52:13;;;;;;;4.73;2.50;;;16.50;60.50;17.30;100632.00;;;;5012783;28;20208;-47
2023/01/20 10:54:44;;;;;;;2.50;2.30;;;16.50;60.50;17.30;100620.00;;;;5025038;28;20168;-44
2023/01/20 10:57:12;;;;;;;5.60;2.33;;;16.50;60.50;17.30;100630.00;;;;5044902;28;20202;-46
2023/01/20 10:59:44;;;;;;;3.57;2.50;;;16.50;60.90;17.30;100634.00;;;;5030529;28;20207;-46
2023/01/20 11:02:30;;;;;;;2.47;2.27;;;16.50;61.30;17.30;100628.00;;;;5029493;28;20182;-45
2023/01/20 11:05:01;;;;;;;3.00;2.10;;;16.50;60.60;17.30;100629.00;;;;5031121;28;20249;-46
2023/01/20 11:07:28;;;;;;;5.83;2.30;;;16.60;60.40;17.30;100633.00;;;;5030038;28;20175;-47
2023/01/20 11:09:54;;;;;;;5.13;2.43;;;16.60;60.40;17.40;100619.00;;;;5032167;28;20200;-45
2023/01/20 11:12:23;;;;;;;4.87;2.30;;;16.60;60.40;17.40;100617.00;;;;5031097;28;20176;-46